createdAt,value
2023-01-23T00:04:17.397Z,3.81
2023-01-23T00:09:19.257Z,3.78
2023-01-23T00:14:21.141Z,3.78
2023-01-23T00:19:22.982Z,3.77
2023-01-23T00:24:24.797Z,3.77
2023-01-23T00:29:26.705Z,3.75
2023-01-23T00:34:29.341Z,3.79
2023-01-23T00:39:31.257Z,3.80
2023-01-23T00:44:33.315Z,3.81
2023-01-23T00:49:35.229Z,3.78
2023-01-23T00:54:38.355Z,3.78
2023-01-23T00:59:40.416Z,3.75
2023-01-23T01:04:42.246Z,3.74
2023-01-23T01:09:44.220Z,3.76
2023-01-23T01:14:46.082Z,3.79
2023-01-23T01:19:50.157Z,3.76
2023-01-23T01:24:52.018Z,3.76
2023-01-23T01:29:54.117Z,3.75
2023-01-23T01:34:55.965Z,3.76
2023-01-23T01:39:57.790Z,3.81
2023-01-23T01:45:01.828Z,3.88
2023-01-23T01:50:06.940Z,3.91
2023-01-23T01:55:08.940Z,3.96
2023-01-23T02:00:18.845Z,4.02
2023-01-23T02:05:32.231Z,4.05
2023-01-23T02:10:36.349Z,4.02
2023-01-23T02:15:39.646Z,4.02
2023-01-23T02:20:41.655Z,3.98
2023-01-23T02:25:43.607Z,3.98
2023-01-23T02:30:47.655Z,3.96
2023-01-23T02:35:49.774Z,3.96
2023-01-23T02:40:52.758Z,3.94
2023-01-23T02:45:57.641Z,3.94
2023-01-23T02:50:59.744Z,3.93
2023-01-23T02:56:01.863Z,3.91
2023-01-23T03:01:04.732Z,3.91
2023-01-23T03:06:06.913Z,3.92
2023-01-23T03:11:08.955Z,3.91
2023-01-23T03:16:10.944Z,3.89
2023-01-23T03:21:13.332Z,3.86
2023-01-23T03:26:18.131Z,3.87
2023-01-23T03:31:21.961Z,3.88
2023-01-23T03:36:24.007Z,3.91
2023-01-23T03:41:26.186Z,3.90
2023-01-23T03:46:32.016Z,3.86
2023-01-23T03:51:34.253Z,3.83
2023-01-23T03:56:36.929Z,3.80
2023-01-23T04:01:41.923Z,3.85
2023-01-23T04:06:44.127Z,3.89
2023-01-23T04:11:46.019Z,3.92
2023-01-23T04:16:48.087Z,3.93
2023-01-23T04:21:50.555Z,3.92
2023-01-23T04:26:53.098Z,3.95
2023-01-23T04:31:55.106Z,3.95
2023-01-23T04:36:57.339Z,3.94
2023-01-23T04:41:59.882Z,3.92
2023-01-23T04:47:12.412Z,3.91
2023-01-23T04:52:15.119Z,3.92
2023-01-23T04:57:25.705Z,3.90
2023-01-23T05:02:33.615Z,3.90
2023-01-23T05:07:36.309Z,3.89
2023-01-23T05:12:42.074Z,3.87
2023-01-23T05:17:44.319Z,3.88
2023-01-23T05:22:52.920Z,3.87
2023-01-23T05:28:00.492Z,3.87
2023-01-23T05:33:02.383Z,3.89
2023-01-23T05:38:04.393Z,3.88
2023-01-23T05:43:06.940Z,3.86
2023-01-23T05:48:28.015Z,3.85
2023-01-23T05:53:30.663Z,3.87
2023-01-23T05:58:32.593Z,3.89
2023-01-23T06:03:56.134Z,3.88
2023-01-23T06:09:11.793Z,3.88
2023-01-23T06:14:13.629Z,3.89
2023-01-23T06:19:16.292Z,3.91
2023-01-23T06:24:18.188Z,3.93
2023-01-23T06:29:21.164Z,3.93
2023-01-23T06:34:23.102Z,3.95
2023-01-23T06:39:31.682Z,3.93
2023-01-23T06:44:34.860Z,3.91
2023-01-23T06:49:37.099Z,3.89
2023-01-23T06:54:39.061Z,3.93
2023-01-23T06:59:41.794Z,3.97
2023-01-23T07:04:45.730Z,3.89
2023-01-23T07:09:48.325Z,3.89
2023-01-23T07:14:56.546Z,3.89
2023-01-23T07:20:05.479Z,3.87
2023-01-23T07:25:10.562Z,3.87
2023-01-23T07:30:13.997Z,3.90
2023-01-23T07:35:15.929Z,3.91
2023-01-23T07:40:18.852Z,4.05
2023-01-23T07:45:20.968Z,4.04
2023-01-23T07:50:23.088Z,4.05
2023-01-23T07:55:25.143Z,4.05
2023-01-23T08:00:29.524Z,4.06
2023-01-23T08:05:31.671Z,4.06
2023-01-23T08:10:33.484Z,4.05
2023-01-23T08:15:37.422Z,4.07
2023-01-23T08:20:39.308Z,4.15
2023-01-23T08:25:41.159Z,4.15
2023-01-23T08:30:43.020Z,4.18
2023-01-23T08:35:58.296Z,4.20
2023-01-23T08:41:01.915Z,4.15
2023-01-23T08:46:04.600Z,4.13
2023-01-23T08:51:09.575Z,4.14
2023-01-23T08:56:17.273Z,4.15
2023-01-23T09:01:22.156Z,4.16
2023-01-23T09:06:24.079Z,4.13
2023-01-23T09:11:26.086Z,4.18
2023-01-23T09:16:28.018Z,4.24
2023-01-23T09:21:29.911Z,4.27
2023-01-23T09:26:31.718Z,4.30
2023-01-23T09:31:33.621Z,4.31
2023-01-23T09:36:42.935Z,4.23
2023-01-23T09:41:46.107Z,4.23
2023-01-23T09:46:52.557Z,4.24
2023-01-23T09:51:57.459Z,4.27
2023-01-23T09:57:03.731Z,4.30
2023-01-23T10:02:20.242Z,4.29
2023-01-23T10:07:52.687Z,4.30
2023-01-23T10:13:16.669Z,4.34
2023-01-23T10:18:29.922Z,4.31
2023-01-23T10:23:37.599Z,4.37
2023-01-23T10:28:40.350Z,4.40
2023-01-23T10:33:54.376Z,4.43
2023-01-23T10:39:10.067Z,4.41
2023-01-23T10:44:20.927Z,4.45
2023-01-23T10:49:35.562Z,4.49
2023-01-23T10:54:47.210Z,4.49
2023-01-23T10:59:54.119Z,4.52
2023-01-23T11:04:56.366Z,4.56
2023-01-23T11:09:59.532Z,4.51
2023-01-23T11:15:13.589Z,4.54
2023-01-23T11:20:52.731Z,4.57
2023-01-23T11:25:55.649Z,4.52
2023-01-23T11:31:15.187Z,4.50
2023-01-23T11:36:17.490Z,4.44
2023-01-23T11:41:21.708Z,4.49
2023-01-23T11:46:42.512Z,4.51
2023-01-23T11:51:53.398Z,4.44
2023-01-23T11:57:15.439Z,4.44
2023-01-23T12:02:26.704Z,4.50
2023-01-23T12:07:28.873Z,4.50
2023-01-23T12:12:53.490Z,4.54
2023-01-23T12:18:07.319Z,4.63
2023-01-23T12:23:19.439Z,4.71
2023-01-23T12:28:36.332Z,4.67
2023-01-23T12:34:12.742Z,4.65
2023-01-23T12:39:26.780Z,4.57
2023-01-23T12:44:37.268Z,4.54
2023-01-23T12:50:07.778Z,4.55
2023-01-23T12:55:21.231Z,4.46
2023-01-23T13:00:44.801Z,4.44
2023-01-23T13:06:00.135Z,4.49
2023-01-23T13:11:35.163Z,4.49
2023-01-23T13:16:48.164Z,4.47
2023-01-23T13:22:27.807Z,4.46
2023-01-23T13:27:55.909Z,4.45
2023-01-23T13:33:04.150Z,4.45
2023-01-23T13:38:30.733Z,4.41
2023-01-23T13:43:51.054Z,4.41
2023-01-23T14:22:43.806Z,4.22
2023-01-23T14:27:54.397Z,4.18
2023-01-23T14:32:56.711Z,4.20
2023-01-23T14:38:02.429Z,4.18
2023-01-23T14:43:08.089Z,4.16
2023-01-23T14:48:16.472Z,4.12
2023-01-23T14:53:18.445Z,4.11
2023-01-23T14:58:24.813Z,4.04
2023-01-23T15:03:44.773Z,4.04
2023-01-23T15:08:47.292Z,4.02
2023-01-23T15:13:52.806Z,3.96
2023-01-23T15:19:00.342Z,3.97
2023-01-23T15:24:14.515Z,3.98
2023-01-23T15:29:19.702Z,3.98
2023-01-23T15:34:34.106Z,3.92
2023-01-23T15:39:46.737Z,3.93
2023-01-23T15:44:48.699Z,3.90
2023-01-23T15:49:50.533Z,3.89
2023-01-23T15:54:58.812Z,3.87
2023-01-23T16:00:01.382Z,3.87
2023-01-23T16:05:03.613Z,3.89
2023-01-23T16:10:28.737Z,3.95
2023-01-23T16:15:33.639Z,3.91
2023-01-23T16:20:38.945Z,3.91
2023-01-23T16:25:44.903Z,3.89
2023-01-23T16:30:48.488Z,3.83
2023-01-23T16:35:51.595Z,3.81
2023-01-23T16:40:54.691Z,3.80
2023-01-23T16:45:57.784Z,3.79
2023-01-23T16:51:08.646Z,3.82
2023-01-23T16:56:21.581Z,3.91
2023-01-23T17:01:24.218Z,3.89
2023-01-23T17:06:27.040Z,3.87
2023-01-23T17:11:50.553Z,3.87
2023-01-23T17:16:54.033Z,3.95
2023-01-23T17:21:56.998Z,3.87
2023-01-23T17:26:58.878Z,3.90
2023-01-23T17:32:00.834Z,3.89
2023-01-23T17:37:03.050Z,3.90
2023-01-23T17:42:04.951Z,3.89
2023-01-23T17:47:10.461Z,3.91
2023-01-23T17:52:12.389Z,3.90
2023-01-23T17:57:15.204Z,3.91
2023-01-23T18:02:28.702Z,3.92
2023-01-23T18:07:30.847Z,3.92
2023-01-23T18:12:57.075Z,3.90
2023-01-23T18:18:04.794Z,3.91
2023-01-23T18:23:11.076Z,3.89
2023-01-23T18:28:21.640Z,3.88
2023-01-23T18:33:35.690Z,3.87
2023-01-23T18:39:02.722Z,3.86
2023-01-23T18:44:16.327Z,3.85
2023-01-23T18:49:32.000Z,3.86
2023-01-23T18:55:18.174Z,3.88
2023-01-23T19:00:32.273Z,3.89
2023-01-23T19:05:35.157Z,3.87
2023-01-23T19:10:48.762Z,3.88
2023-01-23T19:16:03.186Z,3.87
2023-01-23T19:21:17.254Z,3.86
2023-01-23T19:26:19.748Z,3.86
2023-01-23T19:31:24.705Z,3.85
2023-01-23T19:36:29.316Z,3.85
2023-01-23T19:41:46.997Z,3.87
2023-01-23T19:46:48.881Z,3.88
2023-01-23T19:51:51.147Z,3.91
2023-01-23T19:56:53.457Z,3.95
2023-01-23T20:01:55.864Z,3.93
2023-01-23T20:06:58.760Z,3.90
2023-01-23T20:12:02.384Z,3.89
2023-01-23T20:17:04.703Z,3.90
2023-01-23T20:22:07.405Z,3.88
2023-01-23T20:27:09.814Z,3.89
2023-01-23T20:32:11.981Z,3.87
2023-01-23T20:37:14.206Z,3.86
2023-01-23T20:42:16.184Z,3.88
2023-01-23T20:47:18.059Z,3.92
2023-01-23T20:52:38.679Z,3.92
2023-01-23T20:57:59.370Z,3.89
2023-01-23T21:03:01.305Z,3.87
2023-01-23T21:08:03.242Z,3.86
2023-01-23T21:13:05.151Z,3.87
2023-01-23T21:18:06.995Z,3.86
2023-01-23T21:23:08.941Z,3.85
2023-01-23T21:28:10.943Z,3.84
2023-01-23T21:33:12.790Z,3.82
2023-01-23T21:38:14.628Z,3.81
2023-01-23T21:43:16.449Z,3.78
2023-01-23T21:48:18.328Z,3.78
2023-01-23T21:53:20.154Z,3.79
2023-01-23T21:58:21.936Z,3.79
2023-01-23T22:03:23.894Z,3.77
2023-01-23T22:08:25.710Z,3.77
2023-01-23T22:13:27.565Z,3.77
2023-01-23T22:18:30.313Z,3.76
2023-01-23T22:23:32.937Z,3.76
2023-01-23T22:28:35.336Z,3.77
2023-01-23T22:33:42.260Z,3.78
2023-01-23T22:38:45.320Z,3.80
2023-01-23T22:43:47.331Z,3.79
2023-01-23T22:48:49.852Z,3.79
2023-01-23T22:53:53.076Z,3.81
2023-01-23T22:58:57.054Z,3.85
2023-01-23T23:04:00.382Z,3.85
2023-01-23T23:09:02.624Z,3.87
2023-01-23T23:14:04.605Z,3.86
2023-01-23T23:19:06.872Z,3.86
2023-01-23T23:24:12.673Z,3.86
2023-01-23T23:29:15.944Z,3.85
2023-01-23T23:34:19.260Z,3.83
2023-01-23T23:39:21.188Z,3.81
2023-01-23T23:44:23.119Z,3.81
2023-01-23T23:49:26.535Z,3.80
2023-01-23T23:54:28.644Z,3.78
2023-01-23T23:59:30.754Z,3.77
